sensor_id;sensor_type;location;lat;lon;timestamp;temperature;humidity
9658;DHT22;4867;48.112;11.622;2024-01-06T00:00:26;6.60;99.90
9658;DHT22;4867;48.112;11.622;2024-01-06T00:02:54;6.60;99.90
9658;DHT22;4867;48.112;11.622;2024-01-06T00:05:21;6.60;99.90
9658;DHT22;4867;48.112;11.622;2024-01-06T00:07:48;6.60;99.90
9658;DHT22;4867;48.112;11.622;2024-01-06T00:10:17;6.60;99.90
9658;DHT22;4867;48.112;11.622;2024-01-06T00:12:45;6.60;99.90
9658;DHT22;4867;48.112;11.622;2024-01-06T00:15:15;6.60;99.90
9658;DHT22;4867;48.112;11.622;2024-01-06T00:17:42;6.60;99.90
9658;DHT22;4867;48.112;11.622;2024-01-06T00:20:10;6.70;99.90
9658;DHT22;4867;48.112;11.622;2024-01-06T00:22:38;6.70;99.90
9658;DHT22;4867;48.112;11.622;2024-01-06T00:25:05;6.70;99.90
9658;DHT22;4867;48.112;11.622;2024-01-06T00:27:33;6.70;99.90
9658;DHT22;4867;48.112;11.622;2024-01-06T00:30:00;6.60;99.90
9658;DHT22;4867;48.112;11.622;2024-01-06T00:32:27;6.60;99.90
9658;DHT22;4867;48.112;11.622;2024-01-06T00:34:55;6.60;99.90
9658;DHT22;4867;48.112;11.622;2024-01-06T00:37:22;6.60;99.90
9658;DHT22;4867;48.112;11.622;2024-01-06T00:39:50;6.60;99.90
9658;DHT22;4867;48.112;11.622;2024-01-06T00:42:18;6.60;99.90
9658;DHT22;4867;48.112;11.622;2024-01-06T00:44:45;6.60;99.90
9658;DHT22;4867;48.112;11.622;2024-01-06T00:47:12;6.50;99.90
9658;DHT22;4867;48.112;11.622;2024-01-06T00:49:40;6.50;99.90
9658;DHT22;4867;48.112;11.622;2024-01-06T00:52:07;6.50;99.90
9658;DHT22;4867;48.112;11.622;2024-01-06T00:54:35;6.50;99.90
9658;DHT22;4867;48.112;11.622;2024-01-06T00:57:03;6.50;99.90
9658;DHT22;4867;48.112;11.622;2024-01-06T00:59:30;6.50;99.90
9658;DHT22;4867;48.112;11.622;2024-01-06T01:01:58;6.50;99.90
9658;DHT22;4867;48.112;11.622;2024-01-06T01:04:25;6.60;99.90
9658;DHT22;4867;48.112;11.622;2024-01-06T01:06:53;6.60;99.90
9658;DHT22;4867;48.112;11.622;2024-01-06T01:09:20;6.60;99.90
9658;DHT22;4867;48.112;11.622;2024-01-06T01:11:48;6.60;99.90
9658;DHT22;4867;48.112;11.622;2024-01-06T01:14:15;6.50;99.90
9658;DHT22;4867;48.112;11.622;2024-01-06T01:16:45;6.50;99.90
9658;DHT22;4867;48.112;11.622;2024-01-06T01:19:13;6.50;99.90
9658;DHT22;4867;48.112;11.622;2024-01-06T01:21:40;6.50;99.90
9658;DHT22;4867;48.112;11.622;2024-01-06T01:24:08;6.50;99.90
9658;DHT22;4867;48.112;11.622;2024-01-06T01:26:35;6.40;99.90
9658;DHT22;4867;48.112;11.622;2024-01-06T01:29:03;6.40;99.90
9658;DHT22;4867;48.112;11.622;2024-01-06T01:31:30;6.40;99.90
9658;DHT22;4867;48.112;11.622;2024-01-06T01:33:57;6.40;99.90
9658;DHT22;4867;48.112;11.622;2024-01-06T01:36:25;6.40;99.90
9658;DHT22;4867;48.112;11.622;2024-01-06T01:38:52;6.40;99.90
9658;DHT22;4867;48.112;11.622;2024-01-06T01:41:20;6.40;99.90
9658;DHT22;4867;48.112;11.622;2024-01-06T01:43:47;6.40;99.90
9658;DHT22;4867;48.112;11.622;2024-01-06T01:46:14;6.40;99.90
9658;DHT22;4867;48.112;11.622;2024-01-06T01:48:42;6.40;99.90
9658;DHT22;4867;48.112;11.622;2024-01-06T01:51:10;6.40;99.90
9658;DHT22;4867;48.112;11.622;2024-01-06T01:53:38;6.30;99.90
9658;DHT22;4867;48.112;11.622;2024-01-06T01:56:05;6.30;99.90
9658;DHT22;4867;48.112;11.622;2024-01-06T01:58:33;6.30;99.90
9658;DHT22;4867;48.112;11.622;2024-01-06T02:01:00;6.30;99.90
9658;DHT22;4867;48.112;11.622;2024-01-06T02:03:30;6.30;99.90
9658;DHT22;4867;48.112;11.622;2024-01-06T02:05:58;6.30;99.90
9658;DHT22;4867;48.112;11.622;2024-01-06T02:08:25;6.20;99.90
9658;DHT22;4867;48.112;11.622;2024-01-06T02:10:56;6.20;99.90
9658;DHT22;4867;48.112;11.622;2024-01-06T02:13:23;6.30;99.90
9658;DHT22;4867;48.112;11.622;2024-01-06T02:15:51;6.30;99.90
9658;DHT22;4867;48.112;11.622;2024-01-06T02:18:20;6.30;99.90
9658;DHT22;4867;48.112;11.622;2024-01-06T02:20:49;6.30;99.90
9658;DHT22;4867;48.112;11.622;2024-01-06T02:23:17;6.40;99.90
9658;DHT22;4867;48.112;11.622;2024-01-06T02:25:44;6.40;99.90
9658;DHT22;4867;48.112;11.622;2024-01-06T02:28:11;6.30;99.90
9658;DHT22;4867;48.112;11.622;2024-01-06T02:30:39;6.30;99.90
9658;DHT22;4867;48.112;11.622;2024-01-06T02:33:06;6.30;99.90
9658;DHT22;4867;48.112;11.622;2024-01-06T02:35:35;6.30;99.90
9658;DHT22;4867;48.112;11.622;2024-01-06T02:38:02;6.20;99.90
9658;DHT22;4867;48.112;11.622;2024-01-06T02:40:30;6.20;99.90
9658;DHT22;4867;48.112;11.622;2024-01-06T02:42:57;6.20;99.90
9658;DHT22;4867;48.112;11.622;2024-01-06T02:45:24;6.20;99.90
9658;DHT22;4867;48.112;11.622;2024-01-06T02:47:52;6.20;99.90
9658;DHT22;4867;48.112;11.622;2024-01-06T02:50:19;6.20;99.90
9658;DHT22;4867;48.112;11.622;2024-01-06T02:52:47;6.20;99.90
9658;DHT22;4867;48.112;11.622;2024-01-06T02:55:14;6.20;99.90
9658;DHT22;4867;48.112;11.622;2024-01-06T02:57:41;6.20;99.90
9658;DHT22;4867;48.112;11.622;2024-01-06T03:00:09;6.20;99.90
9658;DHT22;4867;48.112;11.622;2024-01-06T03:02:37;6.20;99.90
9658;DHT22;4867;48.112;11.622;2024-01-06T03:05:05;6.10;99.90
9658;DHT22;4867;48.112;11.622;2024-01-06T03:07:32;6.10;99.90
9658;DHT22;4867;48.112;11.622;2024-01-06T03:10:00;6.10;99.90
9658;DHT22;4867;48.112;11.622;2024-01-06T03:12:27;6.00;99.90
9658;DHT22;4867;48.112;11.622;2024-01-06T03:14:55;6.00;99.90
9658;DHT22;4867;48.112;11.622;2024-01-06T03:17:22;6.00;99.90
9658;DHT22;4867;48.112;11.622;2024-01-06T03:19:50;6.00;99.90
9658;DHT22;4867;48.112;11.622;2024-01-06T03:22:18;6.00;99.90
9658;DHT22;4867;48.112;11.622;2024-01-06T03:24:45;5.90;99.90
9658;DHT22;4867;48.112;11.622;2024-01-06T03:27:12;5.90;99.90
9658;DHT22;4867;48.112;11.622;2024-01-06T03:29:40;5.90;99.90
9658;DHT22;4867;48.112;11.622;2024-01-06T03:32:07;5.90;99.90
9658;DHT22;4867;48.112;11.622;2024-01-06T03:34:35;5.90;99.90
9658;DHT22;4867;48.112;11.622;2024-01-06T03:37:02;5.80;99.90
9658;DHT22;4867;48.112;11.622;2024-01-06T03:39:30;5.80;99.90
9658;DHT22;4867;48.112;11.622;2024-01-06T03:41:57;5.70;99.90
9658;DHT22;4867;48.112;11.622;2024-01-06T03:44:25;5.80;99.90
9658;DHT22;4867;48.112;11.622;2024-01-06T03:46:57;5.80;99.90
9658;DHT22;4867;48.112;11.622;2024-01-06T03:49:25;5.80;99.90
9658;DHT22;4867;48.112;11.622;2024-01-06T03:51:52;5.80;99.90
9658;DHT22;4867;48.112;11.622;2024-01-06T03:54:20;5.80;99.90
9658;DHT22;4867;48.112;11.622;2024-01-06T03:56:47;5.80;99.90
9658;DHT22;4867;48.112;11.622;2024-01-06T03:59:15;5.80;99.90
9658;DHT22;4867;48.112;11.622;2024-01-06T04:01:42;5.80;99.90
9658;DHT22;4867;48.112;11.622;2024-01-06T04:04:10;5.80;99.90
9658;DHT22;4867;48.112;11.622;2024-01-06T04:06:37;5.70;99.90
9658;DHT22;4867;48.112;11.622;2024-01-06T04:09:04;5.70;99.90
9658;DHT22;4867;48.112;11.622;2024-01-06T04:11:32;5.70;99.90
9658;DHT22;4867;48.112;11.622;2024-01-06T04:14:00;5.70;99.90
9658;DHT22;4867;48.112;11.622;2024-01-06T04:16:27;5.60;99.90
9658;DHT22;4867;48.112;11.622;2024-01-06T04:18:55;5.60;99.90
9658;DHT22;4867;48.112;11.622;2024-01-06T04:21:22;5.60;99.90
9658;DHT22;4867;48.112;11.622;2024-01-06T04:23:50;5.60;99.90
9658;DHT22;4867;48.112;11.622;2024-01-06T04:26:17;5.60;99.90
9658;DHT22;4867;48.112;11.622;2024-01-06T04:28:44;5.60;99.90
9658;DHT22;4867;48.112;11.622;2024-01-06T04:31:12;5.70;99.90
9658;DHT22;4867;48.112;11.622;2024-01-06T04:33:39;5.70;99.90
9658;DHT22;4867;48.112;11.622;2024-01-06T04:36:08;5.70;99.90
9658;DHT22;4867;48.112;11.622;2024-01-06T04:38:35;5.70;99.90
9658;DHT22;4867;48.112;11.622;2024-01-06T04:41:03;5.70;99.90
9658;DHT22;4867;48.112;11.622;2024-01-06T04:43:30;5.70;99.90
9658;DHT22;4867;48.112;11.622;2024-01-06T04:45:57;5.70;99.90
9658;DHT22;4867;48.112;11.622;2024-01-06T04:48:25;5.70;99.90
9658;DHT22;4867;48.112;11.622;2024-01-06T04:50:53;5.60;99.90
9658;DHT22;4867;48.112;11.622;2024-01-06T04:53:20;5.50;99.90
9658;DHT22;4867;48.112;11.622;2024-01-06T04:55:47;5.40;99.90
9658;DHT22;4867;48.112;11.622;2024-01-06T04:58:15;5.30;99.90
9658;DHT22;4867;48.112;11.622;2024-01-06T05:00:42;5.30;99.90
9658;DHT22;4867;48.112;11.622;2024-01-06T05:03:10;5.20;99.90
9658;DHT22;4867;48.112;11.622;2024-01-06T05:05:37;5.20;99.90
9658;DHT22;4867;48.112;11.622;2024-01-06T05:08:05;5.10;99.90
9658;DHT22;4867;48.112;11.622;2024-01-06T05:10:32;5.00;99.90
9658;DHT22;4867;48.112;11.622;2024-01-06T05:12:59;5.10;99.90
9658;DHT22;4867;48.112;11.622;2024-01-06T05:15:27;5.10;99.90
9658;DHT22;4867;48.112;11.622;2024-01-06T05:17:54;4.90;99.90
9658;DHT22;4867;48.112;11.622;2024-01-06T05:20:22;4.90;99.90
9658;DHT22;4867;48.112;11.622;2024-01-06T05:22:49;4.90;99.90
9658;DHT22;4867;48.112;11.622;2024-01-06T05:25:17;4.90;99.90
9658;DHT22;4867;48.112;11.622;2024-01-06T05:27:44;5.00;99.90
9658;DHT22;4867;48.112;11.622;2024-01-06T05:30:11;5.00;99.90
9658;DHT22;4867;48.112;11.622;2024-01-06T05:32:39;5.00;99.90
9658;DHT22;4867;48.112;11.622;2024-01-06T05:35:06;4.90;99.90
9658;DHT22;4867;48.112;11.622;2024-01-06T05:37:34;4.80;99.90
9658;DHT22;4867;48.112;11.622;2024-01-06T05:40:02;4.90;99.90
9658;DHT22;4867;48.112;11.622;2024-01-06T05:42:31;4.90;99.90
9658;DHT22;4867;48.112;11.622;2024-01-06T05:44:58;4.90;99.90
9658;DHT22;4867;48.112;11.622;2024-01-06T05:47:25;4.80;99.90
9658;DHT22;4867;48.112;11.622;2024-01-06T05:49:53;4.90;99.90
9658;DHT22;4867;48.112;11.622;2024-01-06T05:52:20;4.80;99.90
9658;DHT22;4867;48.112;11.622;2024-01-06T05:54:48;4.80;99.90
9658;DHT22;4867;48.112;11.622;2024-01-06T05:57:15;4.70;99.90
9658;DHT22;4867;48.112;11.622;2024-01-06T05:59:45;4.50;99.90
9658;DHT22;4867;48.112;11.622;2024-01-06T06:02:13;4.50;99.90
9658;DHT22;4867;48.112;11.622;2024-01-06T06:04:40;4.50;99.90
9658;DHT22;4867;48.112;11.622;2024-01-06T06:07:08;4.60;99.90
9658;DHT22;4867;48.112;11.622;2024-01-06T06:09:35;4.60;99.90
9658;DHT22;4867;48.112;11.622;2024-01-06T06:12:05;4.70;99.90
9658;DHT22;4867;48.112;11.622;2024-01-06T06:14:32;4.70;99.90
9658;DHT22;4867;48.112;11.622;2024-01-06T06:17:00;4.80;99.90
9658;DHT22;4867;48.112;11.622;2024-01-06T06:19:27;4.90;99.90
9658;DHT22;4867;48.112;11.622;2024-01-06T06:21:54;4.80;99.90
9658;DHT22;4867;48.112;11.622;2024-01-06T06:24:22;4.80;99.90
9658;DHT22;4867;48.112;11.622;2024-01-06T06:26:49;4.70;99.90
9658;DHT22;4867;48.112;11.622;2024-01-06T06:29:17;4.80;99.90
9658;DHT22;4867;48.112;11.622;2024-01-06T06:31:44;4.80;99.90
9658;DHT22;4867;48.112;11.622;2024-01-06T06:34:12;4.70;99.90
9658;DHT22;4867;48.112;11.622;2024-01-06T06:36:40;4.50;99.90
9658;DHT22;4867;48.112;11.622;2024-01-06T06:39:07;4.60;99.90
9658;DHT22;4867;48.112;11.622;2024-01-06T06:41:35;4.60;99.90
9658;DHT22;4867;48.112;11.622;2024-01-06T06:44:03;4.40;99.90
9658;DHT22;4867;48.112;11.622;2024-01-06T06:46:31;4.40;99.90
9658;DHT22;4867;48.112;11.622;2024-01-06T06:48:58;4.40;99.90
9658;DHT22;4867;48.112;11.622;2024-01-06T06:51:26;4.30;99.90
9658;DHT22;4867;48.112;11.622;2024-01-06T06:53:55;4.30;99.90
9658;DHT22;4867;48.112;11.622;2024-01-06T06:56:22;4.30;99.90
9658;DHT22;4867;48.112;11.622;2024-01-06T06:58:49;4.40;99.90
9658;DHT22;4867;48.112;11.622;2024-01-06T07:01:17;4.30;99.90
9658;DHT22;4867;48.112;11.622;2024-01-06T07:03:44;4.30;99.90
9658;DHT22;4867;48.112;11.622;2024-01-06T07:06:12;4.10;99.90
9658;DHT22;4867;48.112;11.622;2024-01-06T07:08:40;4.10;99.90
9658;DHT22;4867;48.112;11.622;2024-01-06T07:11:09;4.10;99.90
9658;DHT22;4867;48.112;11.622;2024-01-06T07:13:38;4.00;99.90
9658;DHT22;4867;48.112;11.622;2024-01-06T07:16:06;4.00;99.90
9658;DHT22;4867;48.112;11.622;2024-01-06T07:18:45;4.00;99.90
9658;DHT22;4867;48.112;11.622;2024-01-06T07:21:13;4.00;99.90
9658;DHT22;4867;48.112;11.622;2024-01-06T07:23:41;4.00;99.90
9658;DHT22;4867;48.112;11.622;2024-01-06T07:26:09;4.00;99.90
9658;DHT22;4867;48.112;11.622;2024-01-06T07:28:36;4.10;99.90
9658;DHT22;4867;48.112;11.622;2024-01-06T07:31:04;4.10;99.90
9658;DHT22;4867;48.112;11.622;2024-01-06T07:33:32;4.20;99.90
9658;DHT22;4867;48.112;11.622;2024-01-06T07:36:00;4.20;99.90
9658;DHT22;4867;48.112;11.622;2024-01-06T07:38:27;4.20;99.90
9658;DHT22;4867;48.112;11.622;2024-01-06T07:40:55;4.20;99.90
9658;DHT22;4867;48.112;11.622;2024-01-06T07:43:22;4.10;99.90
9658;DHT22;4867;48.112;11.622;2024-01-06T07:45:50;4.20;99.90
9658;DHT22;4867;48.112;11.622;2024-01-06T07:48:18;4.20;99.90
9658;DHT22;4867;48.112;11.622;2024-01-06T07:50:45;4.20;99.90
9658;DHT22;4867;48.112;11.622;2024-01-06T07:53:13;4.30;99.90
9658;DHT22;4867;48.112;11.622;2024-01-06T07:55:42;4.30;99.90
9658;DHT22;4867;48.112;11.622;2024-01-06T07:58:09;4.50;99.90
9658;DHT22;4867;48.112;11.622;2024-01-06T08:00:37;4.50;99.90
9658;DHT22;4867;48.112;11.622;2024-01-06T08:03:04;4.50;99.90
9658;DHT22;4867;48.112;11.622;2024-01-06T08:05:33;4.40;99.90
9658;DHT22;4867;48.112;11.622;2024-01-06T08:08:00;4.40;99.90
9658;DHT22;4867;48.112;11.622;2024-01-06T08:10:28;4.50;99.90
9658;DHT22;4867;48.112;11.622;2024-01-06T08:12:55;4.50;99.90
9658;DHT22;4867;48.112;11.622;2024-01-06T08:15:23;4.60;99.90
9658;DHT22;4867;48.112;11.622;2024-01-06T08:17:50;4.60;99.90
9658;DHT22;4867;48.112;11.622;2024-01-06T08:20:17;4.60;99.90
9658;DHT22;4867;48.112;11.622;2024-01-06T08:22:45;4.60;99.90
9658;DHT22;4867;48.112;11.622;2024-01-06T08:25:12;4.60;99.90
9658;DHT22;4867;48.112;11.622;2024-01-06T08:27:40;4.70;99.90
9658;DHT22;4867;48.112;11.622;2024-01-06T08:30:08;4.70;99.90
9658;DHT22;4867;48.112;11.622;2024-01-06T08:32:36;4.80;99.90
9658;DHT22;4867;48.112;11.622;2024-01-06T08:35:04;4.80;99.90
9658;DHT22;4867;48.112;11.622;2024-01-06T08:37:32;4.90;99.90
9658;DHT22;4867;48.112;11.622;2024-01-06T08:39:59;4.90;99.90
9658;DHT22;4867;48.112;11.622;2024-01-06T08:42:26;5.00;99.90
9658;DHT22;4867;48.112;11.622;2024-01-06T08:44:54;5.10;99.90
9658;DHT22;4867;48.112;11.622;2024-01-06T08:47:21;5.00;99.90
9658;DHT22;4867;48.112;11.622;2024-01-06T08:49:49;5.10;99.90
9658;DHT22;4867;48.112;11.622;2024-01-06T08:52:16;5.10;99.90
9658;DHT22;4867;48.112;11.622;2024-01-06T08:54:44;5.10;99.90
9658;DHT22;4867;48.112;11.622;2024-01-06T08:57:11;5.10;99.90
9658;DHT22;4867;48.112;11.622;2024-01-06T08:59:39;5.00;99.90
9658;DHT22;4867;48.112;11.622;2024-01-06T09:02:07;5.00;99.90
9658;DHT22;4867;48.112;11.622;2024-01-06T09:04:34;5.00;99.90
9658;DHT22;4867;48.112;11.622;2024-01-06T09:07:02;5.00;99.90
9658;DHT22;4867;48.112;11.622;2024-01-06T09:09:29;4.80;99.90
9658;DHT22;4867;48.112;11.622;2024-01-06T09:11:57;4.70;99.90
9658;DHT22;4867;48.112;11.622;2024-01-06T09:14:26;4.70;99.90
9658;DHT22;4867;48.112;11.622;2024-01-06T09:16:53;4.60;99.90
9658;DHT22;4867;48.112;11.622;2024-01-06T09:19:21;4.50;99.90
9658;DHT22;4867;48.112;11.622;2024-01-06T09:21:49;4.50;99.90
9658;DHT22;4867;48.112;11.622;2024-01-06T09:24:16;4.40;99.90
9658;DHT22;4867;48.112;11.622;2024-01-06T09:26:44;4.30;99.90
9658;DHT22;4867;48.112;11.622;2024-01-06T09:29:12;4.40;99.90
9658;DHT22;4867;48.112;11.622;2024-01-06T09:31:39;4.40;99.90
9658;DHT22;4867;48.112;11.622;2024-01-06T09:34:09;4.40;99.90
9658;DHT22;4867;48.112;11.622;2024-01-06T09:36:37;4.40;99.90
9658;DHT22;4867;48.112;11.622;2024-01-06T09:39:04;4.40;99.90
9658;DHT22;4867;48.112;11.622;2024-01-06T09:41:32;4.40;99.90
9658;DHT22;4867;48.112;11.622;2024-01-06T09:44:00;4.40;99.90
9658;DHT22;4867;48.112;11.622;2024-01-06T09:46:28;4.50;99.90
9658;DHT22;4867;48.112;11.622;2024-01-06T09:48:58;4.60;99.90
9658;DHT22;4867;48.112;11.622;2024-01-06T09:51:28;4.70;99.90
9658;DHT22;4867;48.112;11.622;2024-01-06T09:53:58;4.70;99.90
9658;DHT22;4867;48.112;11.622;2024-01-06T09:56:28;4.70;99.90
9658;DHT22;4867;48.112;11.622;2024-01-06T09:58:56;4.70;99.90
9658;DHT22;4867;48.112;11.622;2024-01-06T10:01:24;4.80;99.90
9658;DHT22;4867;48.112;11.622;2024-01-06T10:03:52;4.80;99.90
9658;DHT22;4867;48.112;11.622;2024-01-06T10:06:19;4.80;99.90
9658;DHT22;4867;48.112;11.622;2024-01-06T10:08:49;4.90;99.90
9658;DHT22;4867;48.112;11.622;2024-01-06T10:11:18;4.90;99.90
9658;DHT22;4867;48.112;11.622;2024-01-06T10:13:48;4.90;99.90
9658;DHT22;4867;48.112;11.622;2024-01-06T10:16:17;4.90;99.90
9658;DHT22;4867;48.112;11.622;2024-01-06T10:18:45;4.90;99.90
9658;DHT22;4867;48.112;11.622;2024-01-06T10:21:16;4.90;99.90
9658;DHT22;4867;48.112;11.622;2024-01-06T10:23:45;4.80;99.90
9658;DHT22;4867;48.112;11.622;2024-01-06T10:26:15;4.70;99.90
9658;DHT22;4867;48.112;11.622;2024-01-06T10:28:42;4.70;99.90
9658;DHT22;4867;48.112;11.622;2024-01-06T10:31:10;4.80;99.90
9658;DHT22;4867;48.112;11.622;2024-01-06T10:33:38;4.90;99.90
9658;DHT22;4867;48.112;11.622;2024-01-06T10:36:07;5.00;99.90
9658;DHT22;4867;48.112;11.622;2024-01-06T10:38:36;5.00;99.90
9658;DHT22;4867;48.112;11.622;2024-01-06T10:41:04;5.10;99.90
9658;DHT22;4867;48.112;11.622;2024-01-06T10:43:35;5.20;99.90
9658;DHT22;4867;48.112;11.622;2024-01-06T10:46:08;5.10;99.90
9658;DHT22;4867;48.112;11.622;2024-01-06T10:48:40;5.10;99.90
9658;DHT22;4867;48.112;11.622;2024-01-06T10:51:12;5.10;99.90
9658;DHT22;4867;48.112;11.622;2024-01-06T10:53:42;5.10;99.90
9658;DHT22;4867;48.112;11.622;2024-01-06T10:56:10;5.10;99.90
9658;DHT22;4867;48.112;11.622;2024-01-06T10:58:46;5.10;99.90
9658;DHT22;4867;48.112;11.622;2024-01-06T11:01:19;5.20;99.90
9658;DHT22;4867;48.112;11.622;2024-01-06T11:03:52;5.20;99.90
9658;DHT22;4867;48.112;11.622;2024-01-06T11:06:20;5.20;99.90
9658;DHT22;4867;48.112;11.622;2024-01-06T11:11:35;5.20;99.90
9658;DHT22;4867;48.112;11.622;2024-01-06T11:14:24;5.10;99.90
9658;DHT22;4867;48.112;11.622;2024-01-06T11:16:52;5.20;99.90
9658;DHT22;4867;48.112;11.622;2024-01-06T11:24:53;5.20;99.90
9658;DHT22;4867;48.112;11.622;2024-01-06T11:27:25;5.10;99.90
9658;DHT22;4867;48.112;11.622;2024-01-06T11:30:01;5.10;99.90
9658;DHT22;4867;48.112;11.622;2024-01-06T11:32:36;5.20;99.90
9658;DHT22;4867;48.112;11.622;2024-01-06T11:35:12;5.10;99.90
9658;DHT22;4867;48.112;11.622;2024-01-06T11:40:21;5.10;99.90
9658;DHT22;4867;48.112;11.622;2024-01-06T11:42:59;5.10;99.90
9658;DHT22;4867;48.112;11.622;2024-01-06T11:45:27;5.10;99.90
9658;DHT22;4867;48.112;11.622;2024-01-06T11:47:56;5.10;99.90
9658;DHT22;4867;48.112;11.622;2024-01-06T11:50:26;5.00;99.90
9658;DHT22;4867;48.112;11.622;2024-01-06T11:52:55;5.00;99.90
9658;DHT22;4867;48.112;11.622;2024-01-06T11:55:22;5.00;99.90
9658;DHT22;4867;48.112;11.622;2024-01-06T11:57:50;5.00;99.90
9658;DHT22;4867;48.112;11.622;2024-01-06T12:00:18;5.00;99.90
9658;DHT22;4867;48.112;11.622;2024-01-06T12:02:45;5.00;99.90
9658;DHT22;4867;48.112;11.622;2024-01-06T12:05:14;4.90;99.90
9658;DHT22;4867;48.112;11.622;2024-01-06T12:07:42;4.90;99.90
9658;DHT22;4867;48.112;11.622;2024-01-06T12:10:10;4.80;99.90
9658;DHT22;4867;48.112;11.622;2024-01-06T12:12:38;4.80;99.90
9658;DHT22;4867;48.112;11.622;2024-01-06T12:15:06;4.60;99.90
9658;DHT22;4867;48.112;11.622;2024-01-06T12:17:39;4.60;99.90
9658;DHT22;4867;48.112;11.622;2024-01-06T12:20:07;4.60;99.90
9658;DHT22;4867;48.112;11.622;2024-01-06T12:22:35;4.60;99.90
9658;DHT22;4867;48.112;11.622;2024-01-06T12:25:03;4.60;99.90
9658;DHT22;4867;48.112;11.622;2024-01-06T12:27:32;4.50;99.90
9658;DHT22;4867;48.112;11.622;2024-01-06T12:30:00;4.50;99.90
9658;DHT22;4867;48.112;11.622;2024-01-06T12:32:28;4.40;99.90
9658;DHT22;4867;48.112;11.622;2024-01-06T12:34:55;4.50;99.90
9658;DHT22;4867;48.112;11.622;2024-01-06T12:37:23;4.40;99.90
9658;DHT22;4867;48.112;11.622;2024-01-06T12:39:51;4.30;99.90
9658;DHT22;4867;48.112;11.622;2024-01-06T12:42:19;4.20;99.90
9658;DHT22;4867;48.112;11.622;2024-01-06T12:44:49;4.10;99.90
9658;DHT22;4867;48.112;11.622;2024-01-06T12:47:16;4.00;99.90
9658;DHT22;4867;48.112;11.622;2024-01-06T12:49:44;4.00;99.90
9658;DHT22;4867;48.112;11.622;2024-01-06T12:52:11;4.00;99.90
9658;DHT22;4867;48.112;11.622;2024-01-06T12:54:39;3.90;99.90
9658;DHT22;4867;48.112;11.622;2024-01-06T12:57:11;3.80;99.90
9658;DHT22;4867;48.112;11.622;2024-01-06T12:59:39;3.70;99.90
9658;DHT22;4867;48.112;11.622;2024-01-06T13:02:06;3.80;99.90
9658;DHT22;4867;48.112;11.622;2024-01-06T13:04:33;3.70;99.90
9658;DHT22;4867;48.112;11.622;2024-01-06T13:07:01;3.60;99.90
9658;DHT22;4867;48.112;11.622;2024-01-06T13:09:29;3.60;99.90
9658;DHT22;4867;48.112;11.622;2024-01-06T13:11:57;3.70;99.90
9658;DHT22;4867;48.112;11.622;2024-01-06T13:14:27;3.70;99.90
9658;DHT22;4867;48.112;11.622;2024-01-06T13:16:57;3.80;99.90
9658;DHT22;4867;48.112;11.622;2024-01-06T13:19:25;3.70;99.90
9658;DHT22;4867;48.112;11.622;2024-01-06T13:21:53;3.70;99.90
9658;DHT22;4867;48.112;11.622;2024-01-06T13:24:22;3.70;99.90
9658;DHT22;4867;48.112;11.622;2024-01-06T13:26:49;3.90;99.90
9658;DHT22;4867;48.112;11.622;2024-01-06T13:29:16;3.90;99.90
9658;DHT22;4867;48.112;11.622;2024-01-06T13:31:45;3.90;99.90
9658;DHT22;4867;48.112;11.622;2024-01-06T13:34:12;3.90;99.90
9658;DHT22;4867;48.112;11.622;2024-01-06T13:36:40;4.00;99.90
9658;DHT22;4867;48.112;11.622;2024-01-06T13:39:08;3.90;99.90
9658;DHT22;4867;48.112;11.622;2024-01-06T13:41:35;3.80;99.90
9658;DHT22;4867;48.112;11.622;2024-01-06T13:44:03;3.80;99.90
9658;DHT22;4867;48.112;11.622;2024-01-06T13:46:30;3.70;99.90
9658;DHT22;4867;48.112;11.622;2024-01-06T13:48:57;3.60;99.90
9658;DHT22;4867;48.112;11.622;2024-01-06T13:51:25;3.60;99.90
9658;DHT22;4867;48.112;11.622;2024-01-06T13:53:52;3.70;99.90
9658;DHT22;4867;48.112;11.622;2024-01-06T13:56:21;3.70;99.90
9658;DHT22;4867;48.112;11.622;2024-01-06T13:58:49;3.80;99.90
9658;DHT22;4867;48.112;11.622;2024-01-06T14:01:18;3.80;99.90
9658;DHT22;4867;48.112;11.622;2024-01-06T14:03:46;3.90;99.90
9658;DHT22;4867;48.112;11.622;2024-01-06T14:06:13;4.00;99.90
9658;DHT22;4867;48.112;11.622;2024-01-06T14:08:41;4.10;99.90
9658;DHT22;4867;48.112;11.622;2024-01-06T14:11:08;4.00;99.90
9658;DHT22;4867;48.112;11.622;2024-01-06T14:13:36;4.10;99.90
9658;DHT22;4867;48.112;11.622;2024-01-06T14:16:03;4.10;99.90
9658;DHT22;4867;48.112;11.622;2024-01-06T14:18:31;4.20;99.90
9658;DHT22;4867;48.112;11.622;2024-01-06T14:21:01;4.00;99.90
9658;DHT22;4867;48.112;11.622;2024-01-06T14:23:28;4.00;99.90
9658;DHT22;4867;48.112;11.622;2024-01-06T14:25:58;3.90;99.90
9658;DHT22;4867;48.112;11.622;2024-01-06T14:28:26;3.70;99.90
9658;DHT22;4867;48.112;11.622;2024-01-06T14:30:55;3.80;99.90
9658;DHT22;4867;48.112;11.622;2024-01-06T14:33:23;3.90;99.90
9658;DHT22;4867;48.112;11.622;2024-01-06T14:35:51;3.80;99.90
9658;DHT22;4867;48.112;11.622;2024-01-06T14:38:18;3.80;99.90
9658;DHT22;4867;48.112;11.622;2024-01-06T14:40:46;3.60;99.90
9658;DHT22;4867;48.112;11.622;2024-01-06T14:43:13;3.60;99.90
9658;DHT22;4867;48.112;11.622;2024-01-06T14:45:41;3.50;99.90
9658;DHT22;4867;48.112;11.622;2024-01-06T14:48:08;3.50;99.90
9658;DHT22;4867;48.112;11.622;2024-01-06T14:50:36;3.50;99.90
9658;DHT22;4867;48.112;11.622;2024-01-06T14:53:03;3.60;99.90
9658;DHT22;4867;48.112;11.622;2024-01-06T14:55:31;3.60;99.90
9658;DHT22;4867;48.112;11.622;2024-01-06T14:58:00;3.50;99.90
9658;DHT22;4867;48.112;11.622;2024-01-06T15:00:27;3.50;99.90
9658;DHT22;4867;48.112;11.622;2024-01-06T15:02:55;3.30;99.90
9658;DHT22;4867;48.112;11.622;2024-01-06T15:05:23;3.40;99.90
9658;DHT22;4867;48.112;11.622;2024-01-06T15:07:53;3.50;99.90
9658;DHT22;4867;48.112;11.622;2024-01-06T15:10:20;3.40;99.90
9658;DHT22;4867;48.112;11.622;2024-01-06T15:12:47;3.40;99.90
9658;DHT22;4867;48.112;11.622;2024-01-06T15:15:15;3.50;99.90
9658;DHT22;4867;48.112;11.622;2024-01-06T15:17:42;3.20;99.90
9658;DHT22;4867;48.112;11.622;2024-01-06T15:20:10;3.30;99.90
9658;DHT22;4867;48.112;11.622;2024-01-06T15:22:39;3.30;99.90
9658;DHT22;4867;48.112;11.622;2024-01-06T15:25:07;3.40;99.90
9658;DHT22;4867;48.112;11.622;2024-01-06T15:27:37;3.40;99.90
9658;DHT22;4867;48.112;11.622;2024-01-06T15:30:05;3.50;99.90
9658;DHT22;4867;48.112;11.622;2024-01-06T15:32:40;3.50;99.90
9658;DHT22;4867;48.112;11.622;2024-01-06T15:35:09;3.40;99.90
9658;DHT22;4867;48.112;11.622;2024-01-06T15:37:39;3.30;99.90
9658;DHT22;4867;48.112;11.622;2024-01-06T15:40:07;3.20;99.90
9658;DHT22;4867;48.112;11.622;2024-01-06T15:42:35;3.20;99.90
9658;DHT22;4867;48.112;11.622;2024-01-06T15:45:02;3.20;99.90
9658;DHT22;4867;48.112;11.622;2024-01-06T15:47:30;3.20;99.90
9658;DHT22;4867;48.112;11.622;2024-01-06T15:49:57;3.20;99.90
9658;DHT22;4867;48.112;11.622;2024-01-06T15:52:25;3.20;99.90
9658;DHT22;4867;48.112;11.622;2024-01-06T15:54:52;3.20;99.90
9658;DHT22;4867;48.112;11.622;2024-01-06T15:57:20;3.20;99.90
9658;DHT22;4867;48.112;11.622;2024-01-06T15:59:48;3.20;99.90
9658;DHT22;4867;48.112;11.622;2024-01-06T16:02:15;3.20;99.90
9658;DHT22;4867;48.112;11.622;2024-01-06T16:04:43;3.20;99.90
9658;DHT22;4867;48.112;11.622;2024-01-06T16:07:10;3.20;99.90
9658;DHT22;4867;48.112;11.622;2024-01-06T16:09:38;3.20;99.90
9658;DHT22;4867;48.112;11.622;2024-01-06T16:12:05;3.10;99.90
9658;DHT22;4867;48.112;11.622;2024-01-06T16:14:34;3.20;99.90
9658;DHT22;4867;48.112;11.622;2024-01-06T16:17:03;3.20;99.90